UAE73J OMDB-EGCC
Flight info
| Callsign | UAE73J |
|---|---|
| Flight time | N/A |
| Altitude | 36000 |
| Route | ANVIX R401 GIDIS G783 RIGIL M628 PEKEM DCT MEDPO DCT ITRUX Y511 PMA Z712 WEJ L677 KUPTI/N0494F380 L677 CVO L617 TANSA UL613 KOR DCT DIMIS DCT VAKSU DCT SPL DCT ZDA DCT PEVAL DCT LAMPO DCT GUNGO DCT SAFFA DCT ELMUR DCT RIPUS/N0487F400 L613 HOC DCT LUL DCT RLP DCT ROTSI DCT KOTUN DCT AMAXA DCT VESAN DCT RATUK DCT SOVAT L613 SANDY UN57 WELIN T420 ELVOS |
| Aircraft | A388/J-SADE2E3FGHIJ3J4J5M1RWXY/LB1D1 |
Departure
| Time | N/A |
|---|---|
| Airport | Dubai International Airport (OMDB) |
Arrival
| Time | 2026-05-04 17:49 |
|---|---|
| Airport | Manchester Airport (EGCC) |
| Time | Latitude | Longitude | Altitude | Speed | Heading |
|---|---|---|---|---|---|
| 2026-05-04 17:00 | 49.37773 | 2.53776 | 17712 ft | 384 kts | 327° |
| 2026-05-04 17:00 | 49.44930 | 2.47777 | 19441 ft | 395 kts | 327° |
| 2026-05-04 17:01 | 49.49799 | 2.43683 | 20495 ft | 402 kts | 327° |
| 2026-05-04 17:01 | 49.57466 | 2.37215 | 22121 ft | 413 kts | 327° |
| 2026-05-04 17:02 | 49.62537 | 2.32927 | 23143 ft | 420 kts | 326° |
| 2026-05-04 17:02 | 49.67557 | 2.28668 | 24041 ft | 427 kts | 326° |
| 2026-05-04 17:03 | 49.70075 | 2.26530 | 24460 ft | 430 kts | 326° |
| 2026-05-04 17:03 | 49.72794 | 2.24219 | 24892 ft | 433 kts | 326° |
| 2026-05-04 17:03 | 49.79296 | 2.18677 | 26012 ft | 441 kts | 326° |
| 2026-05-04 17:04 | 49.84669 | 2.14085 | 26968 ft | 448 kts | 326° |
| 2026-05-04 17:04 | 49.90169 | 2.09372 | 27996 ft | 455 kts | 327° |
| 2026-05-04 17:05 | 49.95757 | 2.04571 | 29000 ft | 463 kts | 327° |
| 2026-05-04 17:05 | 50.01446 | 1.99670 | 30012 ft | 472 kts | 327° |
| 2026-05-04 17:06 | 50.07187 | 1.94711 | 30952 ft | 478 kts | 327° |
| 2026-05-04 17:06 | 50.11447 | 1.91023 | 31656 ft | 483 kts | 327° |
| 2026-05-04 17:07 | 50.17713 | 1.85584 | 32637 ft | 489 kts | 327° |
| 2026-05-04 17:07 | 50.18725 | 1.84703 | 32798 ft | 490 kts | 326° |
| 2026-05-04 17:07 | 50.23700 | 1.80370 | 33584 ft | 495 kts | 326° |
| 2026-05-04 17:07 | 50.26696 | 1.77756 | 34054 ft | 497 kts | 326° |
| 2026-05-04 17:08 | 50.29725 | 1.75110 | 34454 ft | 500 kts | 327° |
| 2026-05-04 17:08 | 50.37797 | 1.68037 | 35722 ft | 501 kts | 327° |
| 2026-05-04 17:08 | 50.40974 | 1.65247 | 36270 ft | 501 kts | 327° |
| 2026-05-04 17:09 | 50.44029 | 1.62560 | 36793 ft | 500 kts | 327° |
| 2026-05-04 17:09 | 50.47049 | 1.59899 | 37280 ft | 500 kts | 327° |
| 2026-05-04 17:09 | 50.50077 | 1.57225 | 37777 ft | 500 kts | 327° |
| 2026-05-04 17:10 | 50.56280 | 1.51739 | 38716 ft | 501 kts | 327° |
| 2026-05-04 17:10 | 50.68527 | 1.40853 | 39965 ft | 505 kts | 327° |
| 2026-05-04 17:11 | 50.76338 | 1.33880 | 39969 ft | 501 kts | 327° |
| 2026-05-04 17:12 | 50.84451 | 1.26606 | 39982 ft | 502 kts | 327° |
| 2026-05-04 17:13 | 51.00578 | 1.12059 | 39986 ft | 501 kts | 327° |
| 2026-05-04 17:14 | 51.08165 | 1.03683 | 39996 ft | 496 kts | 316° |
| 2026-05-04 17:14 | 51.10716 | 1.00016 | 39978 ft | 494 kts | 313° |
| 2026-05-04 17:15 | 51.19504 | 0.86432 | 39982 ft | 495 kts | 313° |
| 2026-05-04 17:16 | 51.29386 | 0.71028 | 39988 ft | 496 kts | 313° |
| 2026-05-04 17:17 | 51.39192 | 0.55607 | 40014 ft | 497 kts | 313° |
| 2026-05-04 17:18 | 51.50549 | 0.37627 | 40019 ft | 496 kts | 313° |
| 2026-05-04 17:19 | 51.61141 | 0.20737 | 40021 ft | 495 kts | 312° |
| 2026-05-04 17:20 | 51.71301 | 0.04233 | 40034 ft | 494 kts | 311° |
| 2026-05-04 17:20 | 51.78500 | -0.07653 | 40043 ft | 494 kts | 312° |
| 2026-05-04 17:21 | 51.88077 | -0.23519 | 40022 ft | 494 kts | 312° |
| 2026-05-04 17:22 | 51.92874 | -0.31506 | 40018 ft | 494 kts | 312° |
| 2026-05-04 17:23 | 52.00026 | -0.43461 | 39297 ft | 492 kts | 311° |
| 2026-05-04 17:23 | 52.02422 | -0.47481 | 38456 ft | 497 kts | 311° |
| 2026-05-04 17:23 | 52.07245 | -0.55590 | 35875 ft | 502 kts | 311° |
| 2026-05-04 17:24 | 52.09621 | -0.59592 | 34708 ft | 502 kts | 311° |
| 2026-05-04 17:24 | 52.16761 | -0.71664 | 31777 ft | 494 kts | 311° |
| 2026-05-04 17:25 | 52.19122 | -0.75667 | 31276 ft | 484 kts | 311° |
| 2026-05-04 17:25 | 52.23724 | -0.83377 | 30240 ft | 469 kts | 315° |
| 2026-05-04 17:26 | 52.28904 | -0.89346 | 29049 ft | 461 kts | 326° |
| 2026-05-04 17:26 | 52.36932 | -0.97338 | 27347 ft | 441 kts | 326° |
| 2026-05-04 17:27 | 52.42096 | -1.02516 | 26238 ft | 430 kts | 326° |
| 2026-05-04 17:27 | 52.47149 | -1.07583 | 25125 ft | 421 kts | 326° |
| 2026-05-04 17:28 | 52.52079 | -1.12539 | 24034 ft | 412 kts | 326° |
| 2026-05-04 17:29 | 52.59276 | -1.19794 | 22404 ft | 398 kts | 326° |
| 2026-05-04 17:29 | 52.66137 | -1.26735 | 20852 ft | 385 kts | 326° |
| 2026-05-04 17:30 | 52.72872 | -1.33578 | 19555 ft | 384 kts | 326° |
| 2026-05-04 17:31 | 52.77446 | -1.38243 | 18427 ft | 383 kts | 326° |
| 2026-05-04 17:31 | 52.84106 | -1.45049 | 17180 ft | 372 kts | 326° |
| 2026-05-04 17:32 | 52.87723 | -1.48758 | 16457 ft | 367 kts | 326° |
| 2026-05-04 17:33 | 52.89129 | -1.50202 | 16170 ft | 366 kts | 326° |
| 2026-05-04 17:33 | 52.91285 | -1.52418 | 15742 ft | 363 kts | 326° |
| 2026-05-04 17:34 | 52.97648 | -1.58975 | 14451 ft | 354 kts | 326° |
| 2026-05-04 17:34 | 52.99728 | -1.61123 | 13927 ft | 351 kts | 326° |
| 2026-05-04 17:35 | 53.05674 | -1.67792 | 12585 ft | 330 kts | 316° |
| 2026-05-04 17:35 | 53.08578 | -1.73202 | 12323 ft | 303 kts | 309° |
| 2026-05-04 17:35 | 53.09926 | -1.75810 | 12132 ft | 295 kts | 309° |
| 2026-05-04 17:36 | 53.11229 | -1.78310 | 12049 ft | 294 kts | 310° |
| 2026-05-04 17:36 | 53.12542 | -1.80841 | 12044 ft | 294 kts | 309° |
| 2026-05-04 17:36 | 53.13873 | -1.83419 | 11896 ft | 293 kts | 309° |
| 2026-05-04 17:36 | 53.15193 | -1.85982 | 11649 ft | 291 kts | 309° |
| 2026-05-04 17:37 | 53.16497 | -1.88518 | 11240 ft | 290 kts | 309° |
| 2026-05-04 17:37 | 53.17803 | -1.91064 | 10885 ft | 288 kts | 309° |
| 2026-05-04 17:37 | 53.19099 | -1.93593 | 10530 ft | 287 kts | 309° |
| 2026-05-04 17:37 | 53.20386 | -1.96111 | 10257 ft | 281 kts | 309° |
| 2026-05-04 17:38 | 53.21632 | -1.98524 | 10152 ft | 269 kts | 310° |
| 2026-05-04 17:38 | 53.22846 | -2.00847 | 9973 ft | 262 kts | 310° |
| 2026-05-04 17:38 | 53.24030 | -2.03106 | 9780 ft | 253 kts | 313° |
| 2026-05-04 17:38 | 53.25417 | -2.04712 | 9552 ft | 238 kts | 341° |
| 2026-05-04 17:39 | 53.28507 | -2.03879 | 8659 ft | 234 kts | 30° |
| 2026-05-04 17:39 | 53.29890 | -2.02455 | 8219 ft | 233 kts | 30° |
| 2026-05-04 17:39 | 53.31243 | -2.01065 | 7825 ft | 230 kts | 30° |
| 2026-05-04 17:40 | 53.32608 | -1.99665 | 7417 ft | 228 kts | 30° |
| 2026-05-04 17:40 | 53.33944 | -1.98299 | 7015 ft | 226 kts | 30° |
| 2026-05-04 17:40 | 53.35265 | -1.96944 | 6643 ft | 224 kts | 30° |
| 2026-05-04 17:40 | 53.36598 | -1.95582 | 6250 ft | 221 kts | 30° |
| 2026-05-04 17:41 | 53.37888 | -1.94266 | 6039 ft | 211 kts | 30° |
| 2026-05-04 17:41 | 53.39014 | -1.93115 | 5854 ft | 194 kts | 30° |
| 2026-05-04 17:41 | 53.40186 | -1.91910 | 5051 ft | 199 kts | 30° |
| 2026-05-04 17:41 | 53.41414 | -1.90802 | 4258 ft | 198 kts | 14° |
| 2026-05-04 17:42 | 53.42701 | -1.90871 | 3887 ft | 180 kts | 338° |
| 2026-05-04 17:42 | 53.43686 | -1.92064 | 3572 ft | 172 kts | 319° |
| 2026-05-04 17:42 | 53.44598 | -1.93394 | 3483 ft | 177 kts | 320° |
| 2026-05-04 17:42 | 53.45500 | -1.94699 | 3493 ft | 178 kts | 320° |
| 2026-05-04 17:43 | 53.46439 | -1.96063 | 3505 ft | 183 kts | 320° |
| 2026-05-04 17:43 | 53.47397 | -1.97456 | 3498 ft | 183 kts | 320° |
| 2026-05-04 17:43 | 53.48306 | -1.98931 | 3494 ft | 184 kts | 304° |
| 2026-05-04 17:43 | 53.48570 | -2.00966 | 3509 ft | 188 kts | 259° |
| 2026-05-04 17:44 | 53.47859 | -2.02747 | 3509 ft | 189 kts | 220° |
| 2026-05-04 17:44 | 53.46822 | -2.04106 | 3486 ft | 188 kts | 223° |
| 2026-05-04 17:44 | 53.45938 | -2.05624 | 3431 ft | 177 kts | 230° |
| 2026-05-04 17:44 | 53.45154 | -2.07194 | 3194 ft | 174 kts | 233° |
| 2026-05-04 17:45 | 53.44402 | -2.08761 | 2964 ft | 172 kts | 232° |
| 2026-05-04 17:45 | 53.43677 | -2.10257 | 2737 ft | 159 kts | 233° |
| 2026-05-04 17:45 | 53.43013 | -2.11645 | 2530 ft | 151 kts | 233° |
| 2026-05-04 17:45 | 53.42359 | -2.13003 | 2321 ft | 149 kts | 233° |
| 2026-05-04 17:46 | 53.41718 | -2.14334 | 2115 ft | 145 kts | 234° |
| 2026-05-04 17:46 | 53.41096 | -2.15631 | 1927 ft | 142 kts | 234° |
| 2026-05-04 17:46 | 53.40469 | -2.16927 | 1736 ft | 142 kts | 234° |
| 2026-05-04 17:46 | 53.39858 | -2.18204 | 1534 ft | 141 kts | 234° |
| 2026-05-04 17:47 | 53.39242 | -2.19478 | 1348 ft | 140 kts | 234° |
| 2026-05-04 17:47 | 53.38635 | -2.20740 | 1127 ft | 138 kts | 233° |
| 2026-05-04 17:47 | 53.38037 | -2.21973 | 916 ft | 134 kts | 233° |
| 2026-05-04 17:47 | 53.37489 | -2.23117 | 736 ft | 133 kts | 232° |
| 2026-05-04 17:48 | 53.36918 | -2.24302 | 531 ft | 131 kts | 231° |
| 2026-05-04 17:48 | 53.36348 | -2.25492 | 366 ft | 130 kts | 231° |
| 2026-05-04 17:48 | 53.35973 | -2.26255 | 269 ft | 125 kts | 231° |
| 2026-05-04 17:48 | 53.35406 | -2.27425 | 243 ft | 65 kts | 231° |
| 2026-05-04 17:49 | 53.35198 | -2.27863 | 241 ft | 41 kts | 232° |
| 2026-05-04 17:49 | 53.35057 | -2.28163 | 237 ft | 28 kts | 234° |
| 2026-05-04 17:49 | 53.34963 | -2.28475 | 239 ft | 25 kts | 255° |
| 2026-05-04 17:49 | 53.34944 | -2.28652 | 238 ft | 10 kts | 275° |
| 2026-05-04 17:50 | 53.34972 | -2.28739 | 238 ft | 8 kts | 341° |
| 2026-05-04 17:50 | 53.35032 | -2.28707 | 238 ft | 12 kts | 38° |
| 2026-05-04 17:50 | 53.35045 | -2.28685 | 238 ft | 4 kts | 49° |
| 2026-05-04 17:50 | 53.35048 | -2.28680 | 238 ft | 0 kts | 49° |
| 2026-05-04 17:51 | 53.35062 | -2.28651 | 238 ft | 7 kts | 50° |
| 2026-05-04 17:51 | 53.35098 | -2.28579 | 238 ft | 10 kts | 51° |
| 2026-05-04 17:52 | 53.35155 | -2.28459 | 238 ft | 16 kts | 51° |
| 2026-05-04 17:52 | 53.35200 | -2.28365 | 238 ft | 11 kts | 51° |
| 2026-05-04 17:52 | 53.35260 | -2.28243 | 238 ft | 14 kts | 43° |
| 2026-05-04 17:52 | 53.35272 | -2.28224 | 238 ft | 4 kts | 46° |
| 2026-05-04 17:53 | 53.35309 | -2.28160 | 238 ft | 1 kts | 42° |
| 2026-05-04 17:53 | 53.35355 | -2.28149 | 238 ft | 15 kts | 354° |
| 2026-05-04 17:53 | 53.35455 | -2.28142 | 238 ft | 23 kts | 17° |
| 2026-05-04 17:53 | 53.35566 | -2.28019 | 238 ft | 17 kts | 49° |
| 2026-05-04 17:54 | 53.35641 | -2.27903 | 238 ft | 16 kts | 21° |
| 2026-05-04 17:54 | 53.35679 | -2.27888 | 238 ft | 7 kts | 6° |
| 2026-05-04 17:54 | 53.35727 | -2.27879 | 238 ft | 8 kts | 6° |
| 2026-05-04 17:54 | 53.35740 | -2.27876 | 238 ft | 0 kts | 6° |
| 2026-05-04 17:55 | 53.35754 | -2.27874 | 238 ft | 6 kts | 6° |
| 2026-05-04 17:55 | 53.35816 | -2.27863 | 238 ft | 12 kts | 6° |
| 2026-05-04 17:56 | 53.35894 | -2.27853 | 238 ft | 7 kts | 343° |
| 2026-05-04 17:56 | 53.35961 | -2.27881 | 238 ft | 12 kts | 341° |
| 2026-05-04 17:56 | 53.36032 | -2.27967 | 238 ft | 14 kts | 316° |
| 2026-05-04 17:56 | 53.36108 | -2.28095 | 238 ft | 17 kts | 314° |
| 2026-05-04 17:57 | 53.36160 | -2.28188 | 238 ft | 1 kts | 314° |
| 2026-05-04 17:57 | 53.36170 | -2.28204 | 238 ft | 2 kts | 314° |
| 2026-05-04 17:57 | 53.36196 | -2.28249 | 238 ft | 9 kts | 314° |
| 2026-05-04 17:57 | 53.36248 | -2.28341 | 238 ft | 13 kts | 314° |
| 2026-05-04 17:58 | 53.36315 | -2.28456 | 238 ft | 7 kts | 316° |
| 2026-05-04 17:58 | 53.36365 | -2.28503 | 238 ft | 8 kts | 6° |
| 2026-05-04 17:58 | 53.36422 | -2.28453 | 238 ft | 8 kts | 46° |
| 2026-05-04 17:58 | 53.36468 | -2.28382 | 238 ft | 12 kts | 42° |
| 2026-05-04 17:59 | 53.36497 | -2.28336 | 238 ft | 2 kts | 46° |
| 2026-05-04 17:59 | 53.36520 | -2.28307 | 238 ft | 6 kts | 12° |
| 2026-05-04 17:59 | 53.36586 | -2.28387 | 238 ft | 5 kts | 314° |
| 2026-05-04 18:00 | 53.36590 | -2.28394 | 238 ft | 1 kts | 311° |
| 2026-05-04 18:00 | 53.36591 | -2.28397 | 238 ft | 0 kts | 311° |
| 2026-05-04 18:00 | 53.36572 | -2.28359 | 238 ft | 0 kts | 311° |
| 2026-05-04 18:00 | 53.36580 | -2.28374 | 238 ft | 0 kts | 313° |
| 2026-05-04 18:01 | 53.36581 | -2.28376 | 238 ft | 0 kts | 313° |